sensor_id;sensor_type;location;lat;lon;timestamp;pressure;altitude;pressure_sealevel;temperature;humidity
50790;BME280;37287;47.554;7.844;2023-12-20T00:02:10;98204.59;;;1.89;100.00
50790;BME280;37287;47.554;7.844;2023-12-20T00:04:37;98209.28;;;1.93;100.00
50790;BME280;37287;47.554;7.844;2023-12-20T00:07:04;98205.50;;;1.94;100.00
50790;BME280;37287;47.554;7.844;2023-12-20T00:09:31;98195.31;;;1.96;100.00
50790;BME280;37287;47.554;7.844;2023-12-20T00:11:57;98182.75;;;1.96;100.00
50790;BME280;37287;47.554;7.844;2023-12-20T00:14:24;98178.22;;;1.97;100.00
50790;BME280;37287;47.554;7.844;2023-12-20T00:16:51;98177.72;;;1.95;100.00
50790;BME280;37287;47.554;7.844;2023-12-20T00:19:17;98172.88;;;1.97;100.00
50790;BME280;37287;47.554;7.844;2023-12-20T00:21:44;98184.31;;;1.97;100.00
50790;BME280;37287;47.554;7.844;2023-12-20T00:24:11;98184.78;;;1.99;100.00
50790;BME280;37287;47.554;7.844;2023-12-20T00:26:38;98186.69;;;1.99;100.00
50790;BME280;37287;47.554;7.844;2023-12-20T00:29:04;98182.94;;;2.00;100.00
50790;BME280;37287;47.554;7.844;2023-12-20T00:31:31;98177.59;;;2.00;100.00
50790;BME280;37287;47.554;7.844;2023-12-20T00:33:58;98174.91;;;2.00;100.00
50790;BME280;37287;47.554;7.844;2023-12-20T00:36:25;98181.03;;;2.00;100.00
50790;BME280;37287;47.554;7.844;2023-12-20T00:38:52;98173.81;;;2.01;100.00
50790;BME280;37287;47.554;7.844;2023-12-20T00:41:19;98176.50;;;2.01;100.00
50790;BME280;37287;47.554;7.844;2023-12-20T00:43:45;98175.38;;;2.02;100.00
50790;BME280;37287;47.554;7.844;2023-12-20T00:46:12;98171.63;;;2.03;100.00
50790;BME280;37287;47.554;7.844;2023-12-20T00:48:39;98175.38;;;2.02;100.00
50790;BME280;37287;47.554;7.844;2023-12-20T00:51:08;98172.69;;;2.02;100.00
50790;BME280;37287;47.554;7.844;2023-12-20T00:53:35;98176.19;;;2.02;100.00
50790;BME280;37287;47.554;7.844;2023-12-20T00:56:02;98179.63;;;2.03;100.00
50790;BME280;37287;47.554;7.844;2023-12-20T00:58:29;98178.53;;;2.04;100.00
50790;BME280;37287;47.554;7.844;2023-12-20T01:00:56;98176.19;;;2.02;100.00
50790;BME280;37287;47.554;7.844;2023-12-20T01:03:25;98172.69;;;2.02;100.00
50790;BME280;37287;47.554;7.844;2023-12-20T01:05:51;98178.03;;;2.02;100.00
50790;BME280;37287;47.554;7.844;2023-12-20T01:08:18;98167.38;;;2.02;100.00
50790;BME280;37287;47.554;7.844;2023-12-20T01:10:45;98168.16;;;2.02;100.00
50790;BME280;37287;47.554;7.844;2023-12-20T01:13:13;98176.97;;;2.03;100.00
50790;BME280;37287;47.554;7.844;2023-12-20T01:15:40;98172.38;;;2.03;100.00
50790;BME280;37287;47.554;7.844;2023-12-20T01:18:08;98170.53;;;2.04;100.00
50790;BME280;37287;47.554;7.844;2023-12-20T01:20:35;98173.97;;;2.04;100.00
50790;BME280;37287;47.554;7.844;2023-12-20T01:23:02;98173.19;;;2.04;100.00
50790;BME280;37287;47.554;7.844;2023-12-20T01:25:29;98171.78;;;2.06;100.00
50790;BME280;37287;47.554;7.844;2023-12-20T01:27:56;98169.28;;;2.10;100.00
50790;BME280;37287;47.554;7.844;2023-12-20T01:30:23;98171.94;;;2.10;100.00
50790;BME280;37287;47.554;7.844;2023-12-20T01:32:51;98161.25;;;2.10;100.00
50790;BME280;37287;47.554;7.844;2023-12-20T01:35:18;98178.84;;;2.11;100.00
50790;BME280;37287;47.554;7.844;2023-12-20T01:37:45;98180.72;;;2.11;100.00
50790;BME280;37287;47.554;7.844;2023-12-20T01:40:12;98181.03;;;2.09;100.00
50790;BME280;37287;47.554;7.844;2023-12-20T01:42:39;98178.06;;;2.11;100.00
50790;BME280;37287;47.554;7.844;2023-12-20T01:45:06;98182.63;;;2.10;100.00
50790;BME280;37287;47.554;7.844;2023-12-20T01:47:33;98180.72;;;2.11;100.00
50790;BME280;37287;47.554;7.844;2023-12-20T01:50:00;98182.31;;;2.12;100.00
50790;BME280;37287;47.554;7.844;2023-12-20T01:52:30;98184.19;;;2.11;100.00
50790;BME280;37287;47.554;7.844;2023-12-20T01:54:58;98183.41;;;2.11;100.00
50790;BME280;37287;47.554;7.844;2023-12-20T01:57:29;98193.00;;;2.12;100.00
50790;BME280;37287;47.554;7.844;2023-12-20T01:59:56;98190.63;;;2.10;100.00
50790;BME280;37287;47.554;7.844;2023-12-20T02:02:23;98187.50;;;2.08;100.00
50790;BME280;37287;47.554;7.844;2023-12-20T02:04:51;98201.16;;;2.06;100.00
50790;BME280;37287;47.554;7.844;2023-12-20T02:07:18;98193.16;;;2.06;100.00
50790;BME280;37287;47.554;7.844;2023-12-20T02:09:45;98186.88;;;2.02;100.00
50790;BME280;37287;47.554;7.844;2023-12-20T02:12:12;98186.06;;;2.02;100.00
50790;BME280;37287;47.554;7.844;2023-12-20T02:14:39;98185.91;;;1.98;100.00
50790;BME280;37287;47.554;7.844;2023-12-20T02:17:06;98186.53;;;1.95;100.00
50790;BME280;37287;47.554;7.844;2023-12-20T02:19:32;98184.16;;;1.94;100.00
50790;BME280;37287;47.554;7.844;2023-12-20T02:22:07;98181.78;;;1.92;100.00
50790;BME280;37287;47.554;7.844;2023-12-20T02:24:34;98177.88;;;1.89;100.00
50790;BME280;37287;47.554;7.844;2023-12-20T02:27:01;98186.97;;;1.88;100.00
50790;BME280;37287;47.554;7.844;2023-12-20T02:29:28;98177.06;;;1.89;100.00
50790;BME280;37287;47.554;7.844;2023-12-20T02:31:54;98187.75;;;1.89;100.00
50790;BME280;37287;47.554;7.844;2023-12-20T02:34:21;98178.66;;;1.90;100.00
50790;BME280;37287;47.554;7.844;2023-12-20T02:36:48;98183.69;;;1.92;100.00
50790;BME280;37287;47.554;7.844;2023-12-20T02:39:15;98175.38;;;1.93;100.00
50790;BME280;37287;47.554;7.844;2023-12-20T02:41:42;98176.13;;;1.94;100.00
50790;BME280;37287;47.554;7.844;2023-12-20T02:44:08;98177.72;;;1.95;100.00
50790;BME280;37287;47.554;7.844;2023-12-20T02:46:35;98164.84;;;1.97;100.00
50790;BME280;37287;47.554;7.844;2023-12-20T02:49:02;98169.09;;;1.98;100.00
50790;BME280;37287;47.554;7.844;2023-12-20T02:51:29;98171.16;;;2.01;100.00
50790;BME280;37287;47.554;7.844;2023-12-20T02:53:55;98165.00;;;2.00;100.00
50790;BME280;37287;47.554;7.844;2023-12-20T02:56:22;98164.69;;;2.02;100.00
50790;BME280;37287;47.554;7.844;2023-12-20T02:58:49;98160.94;;;2.03;100.00
50790;BME280;37287;47.554;7.844;2023-12-20T03:01:16;98150.25;;;2.03;100.00
50790;BME280;37287;47.554;7.844;2023-12-20T03:03:43;98166.28;;;2.03;100.00
50790;BME280;37287;47.554;7.844;2023-12-20T03:06:09;98162.03;;;2.02;100.00
50790;BME280;37287;47.554;7.844;2023-12-20T03:08:36;98168.94;;;2.03;100.00
50790;BME280;37287;47.554;7.844;2023-12-20T03:11:03;98165.50;;;2.02;100.00
50790;BME280;37287;47.554;7.844;2023-12-20T03:13:30;98170.53;;;2.04;100.00
50790;BME280;37287;47.554;7.844;2023-12-20T03:15:56;98172.06;;;2.05;100.00
50790;BME280;37287;47.554;7.844;2023-12-20T03:18:23;98167.53;;;2.05;100.00
50790;BME280;37287;47.554;7.844;2023-12-20T03:20:50;98172.56;;;2.07;100.00
50790;BME280;37287;47.554;7.844;2023-12-20T03:23:17;98172.56;;;2.07;100.00
50790;BME280;37287;47.554;7.844;2023-12-20T03:25:44;98168.81;;;2.08;100.00
50790;BME280;37287;47.554;7.844;2023-12-20T03:28:10;98175.69;;;2.09;100.00
50790;BME280;37287;47.554;7.844;2023-12-20T03:30:37;98177.28;;;2.10;100.00
50790;BME280;37287;47.554;7.844;2023-12-20T03:33:04;98181.34;;;2.08;100.00
50790;BME280;37287;47.554;7.844;2023-12-20T03:35:31;98180.25;;;2.09;100.00
50790;BME280;37287;47.554;7.844;2023-12-20T03:37:57;98182.63;;;2.10;100.00
50790;BME280;37287;47.554;7.844;2023-12-20T03:40:26;98180.25;;;2.09;100.00
50790;BME280;37287;47.554;7.844;2023-12-20T03:42:53;98175.88;;;2.13;100.00
50790;BME280;37287;47.554;7.844;2023-12-20T03:45:19;98177.28;;;2.10;100.00
50790;BME280;37287;47.554;7.844;2023-12-20T03:47:47;98180.13;;;2.14;100.00
50790;BME280;37287;47.554;7.844;2023-12-20T03:50:15;98181.38;;;2.16;100.00
50790;BME280;37287;47.554;7.844;2023-12-20T03:52:42;98184.34;;;2.15;100.00
50790;BME280;37287;47.554;7.844;2023-12-20T03:55:09;98189.88;;;2.18;100.00
50790;BME280;37287;47.554;7.844;2023-12-20T03:57:36;98187.19;;;2.18;100.00
50790;BME280;37287;47.554;7.844;2023-12-20T06:00:16;98272.88;;;2.39;100.00
50790;BME280;37287;47.554;7.844;2023-12-20T06:02:44;98273.66;;;2.40;100.00
50790;BME280;37287;47.554;7.844;2023-12-20T06:05:10;98269.13;;;2.40;100.00
50790;BME280;37287;47.554;7.844;2023-12-20T06:07:37;98271.94;;;2.44;100.00
50790;BME280;37287;47.554;7.844;2023-12-20T06:10:04;98278.44;;;2.52;100.00
50790;BME280;37287;47.554;7.844;2023-12-20T06:12:32;98275.91;;;2.55;100.00
50790;BME280;37287;47.554;7.844;2023-12-20T06:15:02;98262.38;;;2.61;100.00
50790;BME280;37287;47.554;7.844;2023-12-20T06:17:29;98270.56;;;2.64;100.00
50790;BME280;37287;47.554;7.844;2023-12-20T06:19:57;98272.91;;;2.66;100.00
50790;BME280;37287;47.554;7.844;2023-12-20T06:22:25;98276.41;;;2.66;100.00
50790;BME280;37287;47.554;7.844;2023-12-20T06:24:51;98280.34;;;2.69;100.00
50790;BME280;37287;47.554;7.844;2023-12-20T06:27:18;98281.28;;;2.73;100.00
50790;BME280;37287;47.554;7.844;2023-12-20T06:29:45;98288.03;;;2.79;100.00
50790;BME280;37287;47.554;7.844;2023-12-20T06:32:12;98288.19;;;2.83;100.00
50790;BME280;37287;47.554;7.844;2023-12-20T06:34:38;98288.34;;;2.86;100.00
50790;BME280;37287;47.554;7.844;2023-12-20T06:37:05;98286.31;;;2.92;100.00
50790;BME280;37287;47.554;7.844;2023-12-20T06:39:32;98286.16;;;2.97;100.00
50790;BME280;37287;47.554;7.844;2023-12-20T06:42:00;98292.16;;;3.03;100.00
50790;BME280;37287;47.554;7.844;2023-12-20T06:44:27;98292.28;;;3.06;100.00
50790;BME280;37287;47.554;7.844;2023-12-20T06:46:54;98294.66;;;3.08;100.00
50790;BME280;37287;47.554;7.844;2023-12-20T06:49:20;98290.25;;;3.12;100.00
50790;BME280;37287;47.554;7.844;2023-12-20T06:51:47;98293.41;;;3.14;100.00
50790;BME280;37287;47.554;7.844;2023-12-20T06:54:14;98298.13;;;3.17;100.00
50790;BME280;37287;47.554;7.844;2023-12-20T06:56:40;98302.50;;;3.22;100.00
50790;BME280;37287;47.554;7.844;2023-12-20T06:59:07;98309.13;;;3.24;100.00
50790;BME280;37287;47.554;7.844;2023-12-20T07:01:34;98304.09;;;3.32;100.00
50790;BME280;37287;47.554;7.844;2023-12-20T07:04:01;98312.13;;;3.32;100.00
50790;BME280;37287;47.554;7.844;2023-12-20T07:06:28;98311.16;;;3.36;100.00
50790;BME280;37287;47.554;7.844;2023-12-20T07:08:54;98318.88;;;3.38;100.00
50790;BME280;37287;47.554;7.844;2023-12-20T07:11:21;98314.78;;;3.40;100.00
50790;BME280;37287;47.554;7.844;2023-12-20T07:13:48;98318.72;;;3.43;100.00
50790;BME280;37287;47.554;7.844;2023-12-20T07:16:16;98328.00;;;3.46;100.00
50790;BME280;37287;47.554;7.844;2023-12-20T07:18:43;98340.44;;;3.50;100.00
50790;BME280;37287;47.554;7.844;2023-12-20T07:21:09;98328.13;;;3.49;100.00
50790;BME280;37287;47.554;7.844;2023-12-20T07:23:36;98338.69;;;3.54;100.00
50790;BME280;37287;47.554;7.844;2023-12-20T07:26:03;98341.06;;;3.56;100.00
50790;BME280;37287;47.554;7.844;2023-12-20T07:28:30;98343.41;;;3.57;100.00
50790;BME280;37287;47.554;7.844;2023-12-20T07:30:57;98348.75;;;3.57;100.00
50790;BME280;37287;47.554;7.844;2023-12-20T07:33:24;98352.69;;;3.60;100.00
50790;BME280;37287;47.554;7.844;2023-12-20T07:35:51;98353.47;;;3.60;100.00
50790;BME280;37287;47.554;7.844;2023-12-20T07:38:19;98351.28;;;3.63;100.00
50790;BME280;37287;47.554;7.844;2023-12-20T07:40:45;98348.94;;;3.61;100.00
50790;BME280;37287;47.554;7.844;2023-12-20T07:43:12;98350.50;;;3.62;100.00
50790;BME280;37287;47.554;7.844;2023-12-20T07:45:39;98358.53;;;3.62;100.00
50790;BME280;37287;47.554;7.844;2023-12-20T07:48:06;98361.69;;;3.64;100.00
50790;BME280;37287;47.554;7.844;2023-12-20T07:50:33;98366.06;;;3.69;100.00
50790;BME280;37287;47.554;7.844;2023-12-20T07:53:00;98370.34;;;3.70;100.00
50790;BME280;37287;47.554;7.844;2023-12-20T07:55:27;98379.31;;;3.74;100.00
50790;BME280;37287;47.554;7.844;2023-12-20T07:57:54;98382.44;;;3.76;100.00
50790;BME280;37287;47.554;7.844;2023-12-20T08:00:21;98377.56;;;3.78;100.00
50790;BME280;37287;47.554;7.844;2023-12-20T08:02:47;98386.06;;;3.80;100.00
50790;BME280;37287;47.554;7.844;2023-12-20T08:05:14;98389.22;;;3.82;100.00
50790;BME280;37287;47.554;7.844;2023-12-20T08:07:43;98396.16;;;3.83;100.00
50790;BME280;37287;47.554;7.844;2023-12-20T08:10:10;98395.03;;;3.84;100.00
50790;BME280;37287;47.554;7.844;2023-12-20T08:12:37;98392.03;;;3.86;100.00
50790;BME280;37287;47.554;7.844;2023-12-20T08:15:06;98386.06;;;3.89;100.00
50790;BME280;37287;47.554;7.844;2023-12-20T08:17:33;98393.78;;;3.90;100.00
50790;BME280;37287;47.554;7.844;2023-12-20T08:19:59;98399.91;;;3.91;100.00
50790;BME280;37287;47.554;7.844;2023-12-20T08:22:27;98402.28;;;3.92;100.00
50790;BME280;37287;47.554;7.844;2023-12-20T08:24:53;98405.44;;;3.94;100.00
50790;BME280;37287;47.554;7.844;2023-12-20T08:27:20;98395.81;;;3.93;100.00
50790;BME280;37287;47.554;7.844;2023-12-20T08:29:47;98395.50;;;3.95;100.00
50790;BME280;37287;47.554;7.844;2023-12-20T08:32:14;98386.06;;;3.98;100.00
50790;BME280;37287;47.554;7.844;2023-12-20T08:34:40;98391.88;;;4.00;100.00
50790;BME280;37287;47.554;7.844;2023-12-20T08:37:08;98385.41;;;4.01;100.00
50790;BME280;37287;47.554;7.844;2023-12-20T08:39:34;98407.78;;;4.05;100.00
50790;BME280;37287;47.554;7.844;2023-12-20T08:42:01;98398.31;;;4.07;100.00
50790;BME280;37287;47.554;7.844;2023-12-20T08:44:30;98400.69;;;4.09;100.00
50790;BME280;37287;47.554;7.844;2023-12-20T08:46:57;98400.03;;;4.12;100.00
50790;BME280;37287;47.554;7.844;2023-12-20T08:49:24;98400.03;;;4.12;100.00
50790;BME280;37287;47.554;7.844;2023-12-20T08:51:52;98403.16;;;4.14;100.00
50790;BME280;37287;47.554;7.844;2023-12-20T08:54:19;98406.66;;;4.15;100.00
50790;BME280;37287;47.554;7.844;2023-12-20T08:56:46;98406.34;;;4.16;100.00
50790;BME280;37287;47.554;7.844;2023-12-20T08:59:12;98400.31;;;4.19;100.00
50790;BME280;37287;47.554;7.844;2023-12-20T09:01:39;98409.16;;;4.20;100.00
50790;BME280;37287;47.554;7.844;2023-12-20T09:04:06;98407.28;;;4.20;100.00
50790;BME280;37287;47.554;7.844;2023-12-20T09:06:33;98421.13;;;4.22;100.00
50790;BME280;37287;47.554;7.844;2023-12-20T09:09:00;98413.88;;;4.23;100.00
50790;BME280;37287;47.554;7.844;2023-12-20T09:11:26;98412.75;;;4.24;100.00
50790;BME280;37287;47.554;7.844;2023-12-20T09:13:53;98415.44;;;4.24;100.00
50790;BME280;37287;47.554;7.844;2023-12-20T09:16:20;98417.03;;;4.25;100.00
50790;BME280;37287;47.554;7.844;2023-12-20T09:18:47;98413.69;;;4.28;100.00
50790;BME280;37287;47.554;7.844;2023-12-20T09:21:14;98425.22;;;4.28;100.00
50790;BME280;37287;47.554;7.844;2023-12-20T09:23:41;98423.44;;;4.33;100.00
50790;BME280;37287;47.554;7.844;2023-12-20T09:26:07;98418.56;;;4.35;100.00
50790;BME280;37287;47.554;7.844;2023-12-20T09:28:34;98426.28;;;4.36;100.00
50790;BME280;37287;47.554;7.844;2023-12-20T09:31:04;98419.03;;;4.37;100.00
50790;BME280;37287;47.554;7.844;2023-12-20T09:33:32;98427.88;;;4.37;100.00
50790;BME280;37287;47.554;7.844;2023-12-20T09:35:59;98431.16;;;4.43;100.00
50790;BME280;37287;47.554;7.844;2023-12-20T09:38:26;98435.09;;;4.45;100.00
50790;BME280;37287;47.554;7.844;2023-12-20T09:40:53;98440.16;;;4.47;100.00
50790;BME280;37287;47.554;7.844;2023-12-20T09:43:23;98440.16;;;4.47;100.00
50790;BME280;37287;47.554;7.844;2023-12-20T09:45:53;98437.91;;;4.49;100.00
50790;BME280;37287;47.554;7.844;2023-12-20T09:48:20;98440.59;;;4.49;100.00
50790;BME280;37287;47.554;7.844;2023-12-20T09:50:47;98447.53;;;4.50;100.00
50790;BME280;37287;47.554;7.844;2023-12-20T09:53:19;98444.53;;;4.52;100.00
50790;BME280;37287;47.554;7.844;2023-12-20T09:55:46;98450.69;;;4.52;100.00
50790;BME280;37287;47.554;7.844;2023-12-20T09:58:13;98452.25;;;4.53;100.00
50790;BME280;37287;47.554;7.844;2023-12-20T10:00:40;98444.22;;;4.53;100.00
50790;BME280;37287;47.554;7.844;2023-12-20T10:03:07;98429.72;;;4.54;100.00
50790;BME280;37287;47.554;7.844;2023-12-20T10:05:36;98437.44;;;4.56;100.00
50790;BME280;37287;47.554;7.844;2023-12-20T10:08:03;98434.75;;;4.56;100.00
50790;BME280;37287;47.554;7.844;2023-12-20T10:10:30;98430.16;;;4.56;100.00
50790;BME280;37287;47.554;7.844;2023-12-20T10:13:11;98434.41;;;4.57;100.00
50790;BME280;37287;47.554;7.844;2023-12-20T10:15:39;98424.03;;;4.56;100.00
50790;BME280;37287;47.554;7.844;2023-12-20T10:18:08;98417.88;;;4.55;100.00
50790;BME280;37287;47.554;7.844;2023-12-20T10:20:36;98412.97;;;4.57;100.00
50790;BME280;37287;47.554;7.844;2023-12-20T10:23:03;98414.06;;;4.56;100.00
50790;BME280;37287;47.554;7.844;2023-12-20T10:25:30;98419.09;;;4.58;100.00
50790;BME280;37287;47.554;7.844;2023-12-20T10:28:15;98411.22;;;4.61;100.00
50790;BME280;37287;47.554;7.844;2023-12-20T10:30:46;98418.16;;;4.62;100.00
50790;BME280;37287;47.554;7.844;2023-12-20T10:33:24;98418.63;;;4.64;100.00
50790;BME280;37287;47.554;7.844;2023-12-20T10:35:52;98418.63;;;4.64;100.00
50790;BME280;37287;47.554;7.844;2023-12-20T10:38:19;98407.88;;;4.64;100.00
50790;BME280;37287;47.554;7.844;2023-12-20T10:40:46;98408.97;;;4.63;100.00
50790;BME280;37287;47.554;7.844;2023-12-20T10:43:14;98407.09;;;4.64;100.00
50790;BME280;37287;47.554;7.844;2023-12-20T10:45:42;98398.25;;;4.63;100.00
50790;BME280;37287;47.554;7.844;2023-12-20T10:48:12;98394.34;;;4.61;100.00
50790;BME280;37287;47.554;7.844;2023-12-20T10:50:40;98387.25;;;4.56;100.00
50790;BME280;37287;47.554;7.844;2023-12-20T10:53:07;98386.47;;;4.56;100.00
50790;BME280;37287;47.554;7.844;2023-12-20T10:55:34;98383.19;;;4.50;100.00
50790;BME280;37287;47.554;7.844;2023-12-20T10:58:04;98378.16;;;4.48;100.00
50790;BME280;37287;47.554;7.844;2023-12-20T11:00:37;98374.22;;;4.46;100.00
50790;BME280;37287;47.554;7.844;2023-12-20T11:03:05;98375.19;;;4.41;100.00
50790;BME280;37287;47.554;7.844;2023-12-20T11:05:52;98365.41;;;4.37;100.00
50790;BME280;37287;47.554;7.844;2023-12-20T11:08:39;98358.03;;;4.34;100.00
50790;BME280;37287;47.554;7.844;2023-12-20T11:11:26;98348.72;;;4.31;100.00
50790;BME280;37287;47.554;7.844;2023-12-20T11:14:06;98352.53;;;4.30;100.00
50790;BME280;37287;47.554;7.844;2023-12-20T11:16:37;98349.69;;;4.26;100.00
50790;BME280;37287;47.554;7.844;2023-12-20T11:19:17;98350.34;;;4.23;100.00
50790;BME280;37287;47.554;7.844;2023-12-20T11:21:45;98352.53;;;4.21;100.00
50790;BME280;37287;47.554;7.844;2023-12-20T11:24:13;98364.50;;;4.24;100.00
50790;BME280;37287;47.554;7.844;2023-12-20T11:26:47;98371.31;;;4.21;100.00
50790;BME280;37287;47.554;7.844;2023-12-20T11:32:02;98362.97;;;4.14;100.00
50790;BME280;37287;47.554;7.844;2023-12-20T11:34:33;98357.00;;;4.17;100.00
50790;BME280;37287;47.554;7.844;2023-12-20T11:37:02;98359.19;;;4.15;100.00
50790;BME280;37287;47.554;7.844;2023-12-20T11:39:30;98368.34;;;4.14;100.00
50790;BME280;37287;47.554;7.844;2023-12-20T11:41:57;98361.22;;;4.18;100.00
50790;BME280;37287;47.554;7.844;2023-12-20T11:44:30;98355.53;;;4.28;100.00
50790;BME280;37287;47.554;7.844;2023-12-20T11:46:57;98358.94;;;4.38;100.00
50790;BME280;37287;47.554;7.844;2023-12-20T11:49:25;98362.38;;;4.47;100.00
50790;BME280;37287;47.554;7.844;2023-12-20T11:51:52;98361.56;;;4.55;100.00
50790;BME280;37287;47.554;7.844;2023-12-20T11:54:18;98353.78;;;4.62;100.00
50790;BME280;37287;47.554;7.844;2023-12-20T11:56:46;98358.31;;;4.71;100.00
50790;BME280;37287;47.554;7.844;2023-12-20T11:59:13;98352.09;;;4.79;100.00
50790;BME280;37287;47.554;7.844;2023-12-20T12:01:49;98344.22;;;4.82;100.00
50790;BME280;37287;47.554;7.844;2023-12-20T12:04:17;98343.22;;;4.87;100.00
50790;BME280;37287;47.554;7.844;2023-12-20T12:06:45;98351.88;;;4.93;100.00
50790;BME280;37287;47.554;7.844;2023-12-20T12:09:12;98347.56;;;5.01;100.00
50790;BME280;37287;47.554;7.844;2023-12-20T12:11:39;98356.66;;;5.08;100.00
50790;BME280;37287;47.554;7.844;2023-12-20T12:14:07;98350.78;;;5.15;100.00
50790;BME280;37287;47.554;7.844;2023-12-20T12:16:34;98357.25;;;5.14;100.00
50790;BME280;37287;47.554;7.844;2023-12-20T12:19:01;98350.84;;;5.06;100.00
50790;BME280;37287;47.554;7.844;2023-12-20T12:21:28;98355.16;;;4.98;100.00
50790;BME280;37287;47.554;7.844;2023-12-20T12:24:09;98346.38;;;4.89;100.00
50790;BME280;37287;47.554;7.844;2023-12-20T12:26:36;98362.34;;;4.86;100.00
50790;BME280;37287;47.554;7.844;2023-12-20T12:29:03;98346.88;;;4.82;100.00
50790;BME280;37287;47.554;7.844;2023-12-20T12:31:30;98345.50;;;4.76;100.00
50790;BME280;37287;47.554;7.844;2023-12-20T12:33:57;98345.19;;;4.78;100.00
50790;BME280;37287;47.554;7.844;2023-12-20T12:36:24;98348.81;;;4.73;100.00
50790;BME280;37287;47.554;7.844;2023-12-20T12:38:51;98354.84;;;4.70;100.00
50790;BME280;37287;47.554;7.844;2023-12-20T12:41:18;98360.09;;;4.67;100.00
50790;BME280;37287;47.554;7.844;2023-12-20T12:43:44;98366.56;;;4.65;100.00
50790;BME280;37287;47.554;7.844;2023-12-20T12:46:11;98372.25;;;4.64;100.00
50790;BME280;37287;47.554;7.844;2023-12-20T12:48:38;98376.81;;;4.63;100.00
50790;BME280;37287;47.554;7.844;2023-12-20T12:51:07;98363.38;;;4.63;100.00
50790;BME280;37287;47.554;7.844;2023-12-20T12:53:39;98375.69;;;4.64;100.00
50790;BME280;37287;47.554;7.844;2023-12-20T12:56:07;98369.41;;;4.60;100.00
50790;BME280;37287;47.554;7.844;2023-12-20T12:58:34;98368.16;;;4.58;100.00
50790;BME280;37287;47.554;7.844;2023-12-20T13:01:01;98368.81;;;4.55;100.00
50790;BME280;37287;47.554;7.844;2023-12-20T13:03:28;98366.00;;;4.51;100.00
50790;BME280;37287;47.554;7.844;2023-12-20T13:05:55;98363.59;;;4.58;100.00
50790;BME280;37287;47.554;7.844;2023-12-20T13:08:22;98374.13;;;4.63;100.00
50790;BME280;37287;47.554;7.844;2023-12-20T13:10:48;98374.41;;;4.71;100.00
50790;BME280;37287;47.554;7.844;2023-12-20T13:13:16;98377.38;;;4.78;100.00
50790;BME280;37287;47.554;7.844;2023-12-20T13:15:43;98380.19;;;4.81;100.00
50790;BME280;37287;47.554;7.844;2023-12-20T13:18:17;98369.47;;;4.81;100.00
50790;BME280;37287;47.554;7.844;2023-12-20T13:20:45;98371.22;;;4.77;100.00
50790;BME280;37287;47.554;7.844;2023-12-20T13:23:12;98371.09;;;4.74;100.00
50790;BME280;37287;47.554;7.844;2023-12-20T13:25:39;98376.94;;;4.67;100.00
50790;BME280;37287;47.554;7.844;2023-12-20T13:28:06;98381.41;;;4.63;100.00
50790;BME280;37287;47.554;7.844;2023-12-20T13:30:34;98383.28;;;4.62;100.00
50790;BME280;37287;47.554;7.844;2023-12-20T13:33:01;98387.41;;;4.60;100.00
50790;BME280;37287;47.554;7.844;2023-12-20T13:35:27;98383.03;;;4.55;100.00
50790;BME280;37287;47.554;7.844;2023-12-20T13:37:54;98379.69;;;4.50;100.00
50790;BME280;37287;47.554;7.844;2023-12-20T13:40:22;98380.03;;;4.48;100.00
50790;BME280;37287;47.554;7.844;2023-12-20T13:42:49;98379.25;;;4.47;100.00
50790;BME280;37287;47.554;7.844;2023-12-20T13:45:17;98373.88;;;4.47;100.00
50790;BME280;37287;47.554;7.844;2023-12-20T13:47:43;98375.78;;;4.47;100.00
50790;BME280;37287;47.554;7.844;2023-12-20T13:50:11;98381.78;;;4.44;100.00
50790;BME280;37287;47.554;7.844;2023-12-20T13:52:38;98390.63;;;4.44;100.00
50790;BME280;37287;47.554;7.844;2023-12-20T13:55:05;98392.81;;;4.42;100.00
50790;BME280;37287;47.554;7.844;2023-12-20T13:57:35;98378.97;;;4.40;100.00
50790;BME280;37287;47.554;7.844;2023-12-20T14:00:20;98381.66;;;4.40;100.00
50790;BME280;37287;47.554;7.844;2023-12-20T14:02:47;98382.75;;;4.39;100.00
50790;BME280;37287;47.554;7.844;2023-12-20T14:05:14;98389.22;;;4.38;100.00
50790;BME280;37287;47.554;7.844;2023-12-20T14:07:44;98382.63;;;4.36;100.00
50790;BME280;37287;47.554;7.844;2023-12-20T14:10:13;98384.81;;;4.34;100.00
50790;BME280;37287;47.554;7.844;2023-12-20T14:12:40;98394.13;;;4.36;100.00
50790;BME280;37287;47.554;7.844;2023-12-20T14:15:07;98387.19;;;4.35;100.00
50790;BME280;37287;47.554;7.844;2023-12-20T14:17:38;98395.22;;;4.35;100.00
50790;BME280;37287;47.554;7.844;2023-12-20T14:20:08;98391.00;;;4.34;100.00
50790;BME280;37287;47.554;7.844;2023-12-20T14:22:35;98384.03;;;4.33;100.00
50790;BME280;37287;47.554;7.844;2023-12-20T14:25:04;98385.63;;;4.34;100.00
50790;BME280;37287;47.554;7.844;2023-12-20T14:27:31;98390.19;;;4.34;100.00
50790;BME280;37287;47.554;7.844;2023-12-20T14:29:59;98381.81;;;4.35;100.00
50790;BME280;37287;47.554;7.844;2023-12-20T14:32:26;98387.78;;;4.41;100.00
50790;BME280;37287;47.554;7.844;2023-12-20T14:34:56;98385.59;;;4.43;100.00
50790;BME280;37287;47.554;7.844;2023-12-20T14:37:22;98388.28;;;4.43;100.00
50790;BME280;37287;47.554;7.844;2023-12-20T14:39:49;98385.91;;;4.41;100.00
50790;BME280;37287;47.554;7.844;2023-12-20T14:42:16;98388.91;;;4.40;100.00
50790;BME280;37287;47.554;7.844;2023-12-20T14:44:43;98387.34;;;4.39;100.00
50790;BME280;37287;47.554;7.844;2023-12-20T14:47:10;98391.13;;;4.38;100.00
50790;BME280;37287;47.554;7.844;2023-12-20T14:49:37;98387.19;;;4.35;100.00
50790;BME280;37287;47.554;7.844;2023-12-20T14:52:04;98377.44;;;4.30;100.00
50790;BME280;37287;47.554;7.844;2023-12-20T14:54:31;98373.50;;;4.28;100.00
50790;BME280;37287;47.554;7.844;2023-12-20T14:56:59;98377.59;;;4.25;100.00
50790;BME280;37287;47.554;7.844;2023-12-20T14:59:31;98378.88;;;4.19;100.00
50790;BME280;37287;47.554;7.844;2023-12-20T15:01:58;98389.16;;;4.17;100.00
50790;BME280;37287;47.554;7.844;2023-12-20T15:04:25;98374.00;;;4.12;100.00
50790;BME280;37287;47.554;7.844;2023-12-20T15:06:56;98370.88;;;4.10;100.00